createdAt,value
2024-03-25T00:01:42.792Z,2.60
2024-03-25T00:04:13.931Z,2.00
2024-03-25T00:06:44.812Z,2.40
2024-03-25T00:09:15.656Z,2.90
2024-03-25T00:11:46.548Z,3.10
2024-03-25T00:14:17.528Z,2.90
2024-03-25T00:16:48.248Z,2.70
2024-03-25T00:19:19.433Z,2.70
2024-03-25T00:21:50.187Z,2.70
2024-03-25T00:24:20.953Z,2.30
2024-03-25T00:26:51.665Z,2.30
2024-03-25T00:29:22.588Z,2.20
2024-03-25T00:31:53.415Z,2.00
2024-03-25T00:34:24.392Z,2.10
2024-03-25T00:36:55.394Z,1.80
2024-03-25T00:39:27.186Z,2.60
2024-03-25T00:41:58.087Z,1.50
2024-03-25T00:44:28.836Z,2.00
2024-03-25T00:46:59.710Z,2.40
2024-03-25T00:49:31.002Z,2.10
2024-03-25T00:52:01.764Z,1.90
2024-03-25T00:54:33.603Z,2.70
2024-03-25T00:57:04.876Z,1.90
2024-03-25T00:59:36.205Z,2.50
2024-03-25T01:02:07.882Z,2.40
2024-03-25T01:04:38.771Z,2.00
2024-03-25T01:07:09.571Z,2.50
2024-03-25T01:09:40.430Z,2.50
2024-03-25T01:12:11.350Z,2.60
2024-03-25T01:14:42.518Z,2.60
2024-03-25T01:17:13.841Z,2.00
2024-03-25T01:19:45.095Z,2.70
2024-03-25T01:22:15.843Z,2.30
2024-03-25T01:24:47.018Z,2.70
2024-03-25T01:27:17.767Z,1.80
2024-03-25T01:29:48.529Z,1.60
2024-03-25T01:32:19.640Z,1.90
2024-03-25T01:34:50.938Z,1.90
2024-03-25T01:37:21.683Z,2.00
2024-03-25T01:39:52.663Z,2.00
2024-03-25T01:42:23.475Z,1.90
2024-03-25T01:44:54.881Z,2.00
2024-03-25T01:47:25.710Z,1.70
2024-03-25T01:49:57.590Z,2.10
2024-03-25T01:52:30.307Z,1.60
2024-03-25T01:55:04.619Z,1.90
2024-03-25T01:57:35.703Z,2.30
2024-03-25T02:00:09.233Z,2.30
2024-03-25T02:02:44.968Z,2.20
2024-03-25T02:05:16.880Z,2.80
2024-03-25T02:07:48.196Z,2.80
2024-03-25T02:10:19.337Z,1.90
2024-03-25T02:12:51.323Z,2.50
2024-03-25T02:15:23.167Z,2.60
2024-03-25T02:17:53.873Z,2.90
2024-03-25T02:20:24.703Z,2.60
2024-03-25T02:22:55.867Z,2.00
2024-03-25T02:25:27.747Z,2.90
2024-03-25T02:27:58.585Z,2.20
2024-03-25T02:30:29.839Z,3.20
2024-03-25T02:33:00.569Z,2.80
2024-03-25T02:35:32.170Z,2.50
2024-03-25T02:38:04.195Z,3.30
2024-03-25T02:40:35.496Z,2.80
2024-03-25T02:43:08.147Z,2.60
2024-03-25T02:45:39.240Z,2.70
2024-03-25T02:48:10.458Z,2.30
2024-03-25T02:50:41.369Z,2.30
2024-03-25T02:53:12.486Z,2.50
2024-03-25T02:55:43.340Z,2.30
2024-03-25T02:58:14.122Z,2.20
2024-03-25T03:00:44.878Z,2.70
2024-03-25T03:03:15.694Z,2.50
2024-03-25T03:05:46.627Z,2.20
2024-03-25T03:08:17.275Z,2.50
2024-03-25T03:10:48.036Z,3.00
2024-03-25T03:13:18.788Z,2.60
2024-03-25T03:15:49.684Z,2.50
2024-03-25T03:18:20.369Z,2.80
2024-03-25T03:20:51.389Z,2.80
2024-03-25T03:23:22.204Z,2.70
2024-03-25T03:25:53.703Z,3.30
2024-03-25T03:28:24.512Z,2.30
2024-03-25T03:30:55.301Z,3.00
2024-03-25T03:33:26.121Z,1.60
2024-03-25T03:35:57.621Z,2.90
2024-03-25T03:38:28.404Z,1.90
2024-03-25T03:41:04.713Z,2.20
2024-03-25T03:43:35.566Z,2.30
2024-03-25T03:46:07.086Z,2.10
2024-03-25T03:48:39.096Z,2.30
2024-03-25T03:51:10.466Z,1.80
2024-03-25T03:53:41.522Z,2.00
2024-03-25T03:56:12.372Z,2.00
2024-03-25T03:58:43.202Z,2.30
2024-03-25T04:01:20.508Z,1.70
2024-03-25T04:03:51.509Z,2.50
2024-03-25T04:06:22.457Z,1.60
2024-03-25T04:08:53.192Z,2.00
2024-03-25T04:11:23.918Z,1.60
2024-03-25T04:13:54.624Z,2.00
2024-03-25T04:16:25.360Z,2.20
2024-03-25T04:18:57.612Z,2.20
2024-03-25T04:21:28.369Z,2.10
2024-03-25T04:23:59.012Z,2.10
2024-03-25T04:26:29.826Z,2.30
2024-03-25T04:29:00.684Z,2.80
2024-03-25T04:31:31.444Z,2.40
2024-03-25T04:34:02.286Z,1.60
2024-03-25T04:36:33.053Z,1.90
2024-03-25T04:39:04.782Z,2.00
2024-03-25T04:41:35.900Z,2.10
2024-03-25T04:44:06.894Z,2.10
2024-03-25T04:46:37.680Z,3.20
2024-03-25T04:49:08.677Z,1.60
2024-03-25T04:51:39.526Z,2.00
2024-03-25T04:54:10.206Z,1.80
2024-03-25T04:56:41.574Z,2.10
2024-03-25T04:59:12.499Z,1.60
2024-03-25T05:01:43.263Z,2.00
2024-03-25T05:04:13.998Z,1.60
2024-03-25T05:06:44.844Z,2.60
2024-03-25T05:09:17.319Z,2.70
2024-03-25T05:11:48.107Z,2.90
2024-03-25T05:14:18.876Z,2.80
2024-03-25T05:16:50.417Z,2.10
2024-03-25T05:19:21.391Z,2.30
2024-03-25T05:21:52.099Z,2.00
2024-03-25T05:24:23.189Z,2.50
2024-03-25T05:26:53.895Z,2.30
2024-03-25T05:29:25.473Z,2.50
2024-03-25T05:32:03.265Z,2.10
2024-03-25T05:34:33.938Z,3.00
2024-03-25T05:37:04.668Z,2.60
2024-03-25T05:39:35.379Z,3.20
2024-03-25T05:42:07.670Z,2.60
2024-03-25T05:44:38.632Z,2.20
2024-03-25T05:47:09.408Z,2.90
2024-03-25T05:49:40.337Z,3.40
2024-03-25T05:52:11.204Z,3.00
2024-03-25T05:54:42.004Z,3.10
2024-03-25T05:57:12.758Z,3.00
2024-03-25T05:59:43.476Z,2.60
2024-03-25T06:02:14.793Z,2.90
2024-03-25T06:04:45.500Z,3.60
2024-03-25T06:07:16.379Z,4.00
2024-03-25T06:09:47.905Z,3.10
2024-03-25T06:12:18.680Z,3.10
2024-03-25T06:14:50.493Z,3.00
2024-03-25T06:17:21.300Z,3.40
2024-03-25T06:19:53.287Z,3.20
2024-03-25T06:22:24.408Z,3.00
2024-03-25T06:24:55.219Z,3.80
2024-03-25T06:27:25.920Z,3.70
2024-03-25T06:30:16.700Z,3.20
2024-03-25T06:33:02.065Z,3.40
2024-03-25T06:35:32.803Z,2.30
2024-03-25T06:38:03.655Z,3.20
2024-03-25T06:40:34.476Z,3.10
2024-03-25T06:43:05.930Z,3.40
2024-03-25T06:45:36.609Z,3.80
2024-03-25T06:48:09.326Z,2.90
2024-03-25T06:50:40.146Z,2.70
2024-03-25T06:53:11.023Z,3.30
2024-03-25T06:55:42.062Z,3.70
2024-03-25T06:58:12.713Z,2.30
2024-03-25T07:00:43.789Z,2.70
2024-03-25T07:03:14.680Z,4.10
2024-03-25T07:05:47.920Z,2.30
2024-03-25T07:08:20.110Z,6.70
2024-03-25T07:10:50.988Z,2.30
2024-03-25T07:13:22.298Z,2.30
2024-03-25T07:15:54.996Z,3.00
2024-03-25T07:18:26.029Z,3.90
2024-03-25T07:20:56.776Z,2.40
2024-03-25T07:23:28.039Z,2.70
2024-03-25T07:25:58.774Z,3.80
2024-03-25T07:28:30.303Z,2.90
2024-03-25T07:31:02.140Z,3.00
2024-03-25T07:33:33.026Z,3.10
2024-03-25T07:36:05.729Z,2.30
2024-03-25T07:38:36.668Z,2.50
2024-03-25T07:41:08.229Z,2.50
2024-03-25T07:43:39.628Z,3.80
2024-03-25T07:46:10.423Z,2.70
2024-03-25T07:48:41.311Z,2.70
2024-03-25T07:51:12.122Z,2.70
2024-03-25T07:53:43.533Z,2.90
2024-03-25T07:56:14.905Z,3.30
2024-03-25T07:58:45.697Z,2.50
2024-03-25T08:01:16.835Z,3.10
2024-03-25T08:03:47.716Z,2.90
2024-03-25T08:06:18.569Z,2.40
2024-03-25T08:08:49.693Z,2.60
2024-03-25T08:11:20.973Z,3.10
2024-03-25T08:13:51.953Z,3.10
2024-03-25T08:16:22.694Z,2.90
2024-03-25T08:18:53.517Z,2.20
2024-03-25T08:21:24.999Z,2.60
2024-03-25T08:23:56.181Z,2.60
2024-03-25T08:26:27.078Z,2.50
2024-03-25T08:28:57.788Z,2.80
2024-03-25T08:31:28.818Z,3.10
2024-03-25T08:34:00.386Z,2.80
2024-03-25T08:36:31.119Z,2.50
2024-03-25T08:39:01.869Z,2.50
2024-03-25T08:41:33.926Z,2.70
2024-03-25T08:44:05.306Z,2.60
2024-03-25T08:46:36.461Z,2.70
2024-03-25T08:49:07.652Z,3.30
2024-03-25T08:51:38.720Z,2.70
2024-03-25T08:54:09.662Z,3.40
2024-03-25T08:56:40.654Z,2.50
2024-03-25T08:59:11.463Z,2.50
2024-03-25T09:01:42.263Z,2.10
2024-03-25T09:04:26.029Z,2.50
2024-03-25T09:06:59.096Z,2.80
2024-03-25T09:09:43.863Z,2.50
2024-03-25T09:12:14.933Z,2.10
2024-03-25T09:14:45.745Z,2.50
2024-03-25T09:17:17.074Z,2.30
2024-03-25T09:19:47.953Z,2.80
2024-03-25T09:22:18.980Z,2.80
2024-03-25T09:24:50.357Z,2.70
2024-03-25T09:27:21.406Z,2.30
2024-03-25T09:29:52.350Z,2.40
2024-03-25T09:32:24.757Z,2.10
2024-03-25T09:34:57.006Z,3.00
2024-03-25T09:37:28.440Z,2.40
2024-03-25T09:39:59.756Z,2.30
2024-03-25T09:42:35.666Z,2.50
2024-03-25T09:45:11.530Z,2.90
2024-03-25T09:47:44.820Z,2.70
2024-03-25T09:50:20.471Z,2.70
2024-03-25T09:52:51.785Z,2.80
2024-03-25T09:55:22.636Z,2.80
2024-03-25T09:57:54.156Z,3.00
2024-03-25T10:00:25.099Z,3.30
2024-03-25T10:02:55.939Z,2.40
2024-03-25T10:05:27.460Z,2.00
2024-03-25T10:07:58.768Z,2.30
2024-03-25T10:10:29.726Z,2.30
2024-03-25T10:13:00.867Z,2.70
2024-03-25T10:15:32.115Z,2.50
2024-03-25T10:18:03.047Z,1.80
2024-03-25T10:20:35.634Z,2.30
2024-03-25T10:23:07.262Z,2.40
2024-03-25T10:25:38.497Z,2.10
2024-03-25T10:28:12.336Z,2.10
2024-03-25T10:30:44.195Z,2.40
2024-03-25T10:33:15.172Z,2.50
2024-03-25T10:35:52.180Z,3.30
2024-03-25T10:38:24.942Z,2.30
2024-03-25T10:40:59.456Z,2.50
2024-03-25T10:43:33.042Z,2.70
2024-03-25T10:46:05.608Z,2.60
2024-03-25T10:48:39.102Z,2.80
2024-03-25T10:51:11.533Z,2.00
2024-03-25T10:53:44.839Z,2.90
2024-03-25T10:56:17.350Z,1.90
2024-03-25T10:58:49.933Z,2.60
2024-03-25T11:01:23.404Z,2.40
2024-03-25T11:03:54.648Z,2.20
2024-03-25T11:06:25.660Z,2.50
2024-03-25T11:09:05.124Z,2.20
2024-03-25T11:11:36.624Z,2.70
2024-03-25T11:14:17.288Z,2.00
2024-03-25T11:16:54.952Z,2.50
2024-03-25T11:19:30.246Z,3.30
2024-03-25T11:22:12.347Z,2.20
2024-03-25T11:24:47.008Z,2.40
2024-03-25T11:27:23.088Z,2.90
2024-03-25T11:29:53.832Z,2.60
2024-03-25T11:32:24.686Z,3.00
2024-03-25T11:34:55.474Z,2.60
2024-03-25T11:37:27.028Z,2.50
2024-03-25T11:40:06.061Z,2.60
2024-03-25T11:42:37.516Z,2.10
2024-03-25T11:45:16.261Z,3.60
2024-03-25T11:47:48.636Z,2.30
2024-03-25T11:50:21.049Z,2.70
2024-03-25T11:52:51.971Z,2.10
2024-03-25T11:55:22.796Z,3.00
2024-03-25T11:57:59.466Z,1.50
2024-03-25T12:00:30.342Z,2.70
2024-03-25T12:03:02.178Z,2.50
2024-03-25T12:05:33.095Z,2.90
2024-03-25T12:08:04.181Z,2.60
2024-03-25T12:10:49.185Z,2.00
2024-03-25T12:13:21.170Z,3.00
2024-03-25T12:15:52.289Z,2.20
2024-03-25T12:18:23.528Z,2.60
2024-03-25T12:20:54.233Z,2.80
2024-03-25T12:23:25.107Z,2.00
2024-03-25T12:25:56.087Z,2.30
2024-03-25T12:28:27.333Z,2.20
2024-03-25T12:30:58.561Z,2.10
2024-03-25T12:33:29.375Z,2.60
2024-03-25T12:36:00.241Z,2.90
2024-03-25T12:38:33.307Z,2.60
2024-03-25T12:41:08.798Z,2.80
2024-03-25T12:43:44.965Z,2.30
2024-03-25T12:46:16.584Z,2.40
2024-03-25T12:48:48.204Z,3.10
2024-03-25T12:51:19.091Z,2.50
2024-03-25T12:53:49.885Z,1.90
2024-03-25T12:56:20.701Z,1.80
2024-03-25T12:58:51.511Z,2.30
2024-03-25T13:01:22.315Z,2.30
2024-03-25T13:03:53.279Z,3.00
2024-03-25T13:06:24.332Z,1.80
2024-03-25T13:08:55.226Z,2.10
2024-03-25T13:11:26.312Z,2.30
2024-03-25T13:13:57.110Z,2.10
2024-03-25T13:16:28.583Z,2.20
2024-03-25T13:18:59.719Z,2.40
2024-03-25T13:21:30.679Z,2.30
2024-03-25T13:24:01.669Z,2.30
2024-03-25T13:26:32.723Z,2.40
2024-03-25T13:29:04.036Z,2.30
2024-03-25T13:31:34.907Z,2.00
2024-03-25T13:34:05.789Z,2.10
2024-03-25T13:36:36.666Z,2.30
2024-03-25T13:39:10.067Z,2.20
2024-03-25T13:41:41.015Z,2.30
2024-03-25T13:44:11.859Z,2.50
2024-03-25T13:46:42.594Z,2.40
2024-03-25T13:49:16.574Z,2.10
2024-03-25T13:51:47.230Z,2.10
2024-03-25T13:54:17.919Z,2.20
2024-03-25T13:56:49.233Z,2.20
2024-03-25T13:59:21.216Z,2.50
2024-03-25T14:01:52.654Z,2.40
2024-03-25T14:04:23.494Z,2.20
2024-03-25T14:06:54.650Z,2.60
2024-03-25T14:09:29.411Z,2.10
2024-03-25T14:12:00.199Z,2.90
2024-03-25T14:14:31.214Z,2.90
2024-03-25T14:17:02.248Z,2.20
2024-03-25T14:19:33.848Z,2.70
2024-03-25T14:22:04.745Z,1.90
2024-03-25T14:24:35.644Z,2.70
2024-03-25T14:27:06.760Z,2.20
2024-03-25T14:29:37.625Z,2.60
2024-03-25T14:32:08.596Z,2.30
2024-03-25T14:34:39.409Z,2.20
2024-03-25T14:37:28.756Z,2.10
2024-03-25T14:40:05.930Z,2.30
2024-03-25T14:42:38.191Z,2.10
2024-03-25T14:45:10.786Z,2.30
2024-03-25T14:47:41.660Z,2.60
2024-03-25T14:50:13.648Z,2.00
2024-03-25T14:52:44.969Z,2.20
2024-03-25T14:55:15.946Z,1.70
2024-03-25T14:57:46.763Z,2.00
2024-03-25T15:00:19.519Z,2.70
2024-03-25T15:02:50.542Z,2.20
2024-03-25T15:05:22.142Z,1.90
2024-03-25T15:07:53.166Z,2.50
2024-03-25T15:10:24.107Z,2.50
2024-03-25T15:12:55.413Z,2.00
2024-03-25T15:15:26.514Z,2.00
2024-03-25T15:17:57.595Z,3.10
2024-03-25T15:20:28.888Z,2.10
2024-03-25T15:23:00.061Z,2.50
2024-03-25T15:25:31.327Z,2.30
2024-03-25T15:28:03.676Z,2.10
2024-03-25T15:30:41.707Z,2.40
2024-03-25T15:33:12.835Z,2.10
2024-03-25T15:35:44.207Z,1.80
2024-03-25T15:38:15.352Z,1.90
2024-03-25T15:40:52.353Z,2.30
2024-03-25T15:43:23.884Z,2.50
2024-03-25T15:46:00.088Z,2.30
2024-03-25T15:48:31.147Z,2.20
2024-03-25T15:51:03.779Z,1.90
2024-03-25T15:53:34.791Z,2.40
2024-03-25T15:56:08.316Z,2.20
2024-03-25T15:58:39.472Z,2.00
2024-03-25T16:01:10.681Z,2.20
2024-03-25T16:03:41.826Z,2.10
2024-03-25T16:06:13.932Z,2.50
2024-03-25T16:08:45.431Z,1.80
2024-03-25T16:11:21.286Z,2.00
2024-03-25T16:13:52.684Z,2.10
2024-03-25T16:16:23.829Z,2.30
2024-03-25T16:18:55.206Z,2.10
2024-03-25T16:21:27.314Z,2.30
2024-03-25T16:23:58.402Z,2.90
2024-03-25T16:26:29.440Z,2.20
2024-03-25T16:29:00.410Z,2.20
2024-03-25T16:31:32.162Z,2.30
2024-03-25T16:34:03.212Z,1.90
2024-03-25T16:36:35.055Z,1.70
2024-03-25T16:39:06.681Z,2.30
2024-03-25T16:41:39.355Z,2.20
2024-03-25T16:44:10.530Z,2.10
2024-03-25T16:46:41.625Z,2.10
2024-03-25T16:49:13.530Z,2.10
2024-03-25T16:51:45.110Z,2.10
2024-03-25T16:54:16.063Z,2.10
2024-03-25T16:56:47.039Z,2.00
2024-03-25T16:59:17.902Z,2.00
2024-03-25T17:01:48.842Z,1.90
2024-03-25T17:04:20.339Z,2.00
2024-03-25T17:06:51.415Z,2.90
2024-03-25T17:09:22.341Z,2.80
2024-03-25T17:11:53.635Z,1.90
2024-03-25T17:14:25.353Z,1.90
2024-03-25T17:16:57.106Z,2.40
2024-03-25T17:19:28.379Z,2.30
2024-03-25T17:22:02.647Z,2.00
2024-03-25T17:24:33.665Z,2.60
2024-03-25T17:27:05.555Z,1.50
2024-03-25T17:29:37.034Z,2.10
2024-03-25T17:32:08.538Z,1.70
2024-03-25T17:34:39.389Z,1.80
2024-03-25T17:37:10.312Z,1.70
2024-03-25T17:39:41.099Z,1.90
2024-03-25T17:42:13.939Z,2.50
2024-03-25T17:44:48.985Z,2.20
2024-03-25T17:47:20.240Z,1.80
2024-03-25T17:49:51.114Z,1.90
2024-03-25T17:52:22.451Z,2.00
2024-03-25T17:54:53.418Z,1.80
2024-03-25T17:57:24.429Z,2.70
2024-03-25T17:59:55.531Z,2.10
2024-03-25T18:02:26.589Z,1.80
2024-03-25T18:04:57.815Z,1.80
2024-03-25T18:07:29.590Z,1.90
2024-03-25T18:10:00.701Z,2.40
2024-03-25T18:12:31.619Z,2.00
2024-03-25T18:15:02.807Z,2.20
2024-03-25T18:17:34.578Z,2.40
2024-03-25T18:20:08.055Z,1.90
2024-03-25T18:22:39.248Z,2.20
2024-03-25T18:25:11.338Z,2.40
2024-03-25T18:27:42.874Z,2.40
2024-03-25T18:30:15.696Z,2.90
2024-03-25T18:32:47.595Z,6.30
2024-03-25T18:35:18.730Z,4.90
2024-03-25T18:37:49.863Z,3.90
2024-03-25T18:40:22.339Z,5.20
2024-03-25T18:42:53.287Z,4.70
2024-03-25T18:45:24.264Z,4.40
2024-03-25T18:47:55.371Z,4.20
2024-03-25T18:50:26.614Z,3.40
2024-03-25T18:52:57.939Z,4.00
2024-03-25T18:55:29.018Z,3.70
2024-03-25T18:58:00.295Z,5.40
2024-03-25T19:00:31.424Z,3.40
2024-03-25T19:03:02.548Z,5.80
2024-03-25T19:05:33.594Z,4.20
2024-03-25T19:08:05.668Z,3.60
2024-03-25T19:10:36.589Z,4.70
2024-03-25T19:13:08.197Z,3.50
2024-03-25T19:15:40.427Z,4.40
2024-03-25T19:18:11.859Z,6.00
2024-03-25T19:20:42.830Z,5.20
2024-03-25T19:23:13.836Z,6.10
2024-03-25T19:25:44.775Z,3.50
2024-03-25T19:28:16.076Z,4.60
2024-03-25T19:30:47.524Z,3.80
2024-03-25T19:33:18.529Z,6.50
2024-03-25T19:35:52.602Z,5.50
2024-03-25T19:38:23.958Z,4.60
2024-03-25T19:40:55.105Z,4.60
2024-03-25T19:43:26.444Z,4.10
2024-03-25T19:45:57.544Z,5.10
2024-03-25T19:48:29.119Z,4.30
2024-03-25T19:51:00.032Z,4.20
2024-03-25T19:53:31.430Z,4.50
2024-03-25T19:56:05.004Z,3.70
2024-03-25T19:58:35.969Z,4.10
2024-03-25T20:01:11.162Z,4.70
2024-03-25T20:03:42.267Z,4.80
2024-03-25T20:06:15.720Z,3.20
2024-03-25T20:08:47.518Z,3.50
2024-03-25T20:11:18.487Z,3.90
2024-03-25T20:13:49.369Z,3.20
2024-03-25T20:16:21.243Z,4.60
2024-03-25T20:18:52.273Z,3.50
2024-03-25T20:21:23.279Z,3.70
2024-03-25T20:23:54.211Z,3.40
2024-03-25T20:26:25.297Z,3.80
2024-03-25T20:28:56.388Z,4.70
2024-03-25T20:31:27.223Z,3.30
2024-03-25T20:33:58.398Z,5.90
2024-03-25T20:36:29.379Z,4.30
2024-03-25T20:39:00.353Z,3.20
2024-03-25T20:41:31.315Z,3.90
2024-03-25T20:44:03.964Z,4.10
2024-03-25T20:46:35.729Z,4.30
2024-03-25T20:49:08.051Z,2.80
2024-03-25T20:51:39.466Z,2.90
2024-03-25T20:54:10.858Z,2.50
2024-03-25T20:56:41.855Z,3.80
2024-03-25T20:59:13.007Z,3.30
2024-03-25T21:01:44.086Z,3.20
2024-03-25T21:04:15.114Z,3.70
2024-03-25T21:06:46.662Z,2.80
2024-03-25T21:09:17.657Z,2.90
2024-03-25T21:11:48.510Z,2.80
2024-03-25T21:14:19.826Z,2.70
2024-03-25T21:16:50.754Z,3.00
2024-03-25T21:19:23.055Z,2.70
2024-03-25T21:21:53.913Z,2.50
2024-03-25T21:24:25.136Z,2.50
2024-03-25T21:26:56.206Z,2.30
2024-03-25T21:29:27.174Z,3.20
2024-03-25T21:31:58.135Z,2.40
2024-03-25T21:34:29.951Z,2.70
2024-03-25T21:37:01.148Z,4.20
2024-03-25T21:39:32.034Z,2.90
2024-03-25T21:42:03.165Z,3.20
2024-03-25T21:44:34.123Z,3.10
2024-03-25T21:47:06.824Z,2.80
2024-03-25T21:49:37.964Z,2.70
2024-03-25T21:52:09.752Z,2.20
2024-03-25T21:54:41.625Z,3.40
2024-03-25T21:57:12.431Z,2.50
2024-03-25T21:59:43.429Z,3.80
2024-03-25T22:02:14.380Z,3.00
2024-03-25T22:04:49.623Z,4.00
2024-03-25T22:07:20.422Z,2.50
2024-03-25T22:09:51.885Z,2.20
2024-03-25T22:12:22.781Z,2.40
2024-03-25T22:14:54.566Z,3.00
2024-03-25T22:17:25.608Z,2.50
2024-03-25T22:19:57.044Z,2.70
2024-03-25T22:22:28.255Z,3.30
2024-03-25T22:24:59.359Z,2.70
2024-03-25T22:27:30.277Z,3.10
2024-03-25T22:30:01.626Z,3.50
2024-03-25T22:32:33.008Z,2.80
2024-03-25T22:35:03.956Z,3.40
2024-03-25T22:37:40.241Z,2.90
2024-03-25T22:40:14.939Z,2.70
2024-03-25T22:42:46.515Z,3.40
2024-03-25T22:45:17.770Z,3.50
2024-03-25T22:47:48.633Z,2.60
2024-03-25T22:50:19.735Z,2.80
2024-03-25T22:52:50.751Z,2.90
2024-03-25T22:55:22.361Z,3.10
2024-03-25T22:57:53.233Z,2.90
2024-03-25T23:00:24.176Z,2.40
2024-03-25T23:02:55.011Z,2.20
2024-03-25T23:05:25.949Z,2.20
2024-03-25T23:07:56.769Z,2.70
2024-03-25T23:10:27.615Z,2.60
2024-03-25T23:12:58.707Z,2.60
2024-03-25T23:15:29.623Z,2.80
2024-03-25T23:18:00.491Z,3.40
2024-03-25T23:20:31.900Z,2.10
2024-03-25T23:23:03.068Z,3.20
2024-03-25T23:25:33.970Z,2.40
2024-03-25T23:28:05.256Z,2.40
2024-03-25T23:30:36.724Z,3.00
2024-03-25T23:33:08.166Z,2.60
2024-03-25T23:35:39.093Z,3.00
2024-03-25T23:38:10.014Z,2.50
2024-03-25T23:40:40.968Z,2.50
2024-03-25T23:43:13.214Z,2.50
2024-03-25T23:45:44.204Z,2.20
2024-03-25T23:48:15.017Z,2.40
2024-03-25T23:50:46.731Z,2.50
2024-03-25T23:53:18.191Z,3.00
2024-03-25T23:55:49.583Z,2.40
2024-03-25T23:58:20.459Z,3.70
